sensor_id;sensor_type;location;lat;lon;timestamp;P1;durP1;ratioP1;P2;durP2;ratioP2
53545;SDS011;39432;51.902;10.844;2023-03-01T00:00:25;10.52;;;5.03;;
53545;SDS011;39432;51.902;10.844;2023-03-01T00:02:55;8.35;;;4.50;;
53545;SDS011;39432;51.902;10.844;2023-03-01T00:05:24;9.60;;;4.70;;
53545;SDS011;39432;51.902;10.844;2023-03-01T00:07:57;9.95;;;4.70;;
53545;SDS011;39432;51.902;10.844;2023-03-01T00:10:27;10.48;;;4.95;;
53545;SDS011;39432;51.902;10.844;2023-03-01T00:12:56;8.90;;;4.88;;
53545;SDS011;39432;51.902;10.844;2023-03-01T00:15:26;10.02;;;5.07;;
53545;SDS011;39432;51.902;10.844;2023-03-01T00:17:55;10.63;;;5.00;;
53545;SDS011;39432;51.902;10.844;2023-03-01T00:20:25;7.40;;;4.40;;
53545;SDS011;39432;51.902;10.844;2023-03-01T00:22:57;9.05;;;4.75;;
53545;SDS011;39432;51.902;10.844;2023-03-01T00:25:27;8.50;;;4.43;;
53545;SDS011;39432;51.902;10.844;2023-03-01T00:27:56;11.85;;;4.88;;
53545;SDS011;39432;51.902;10.844;2023-03-01T00:30:26;6.90;;;4.22;;
53545;SDS011;39432;51.902;10.844;2023-03-01T00:32:56;7.40;;;4.15;;
53545;SDS011;39432;51.902;10.844;2023-03-01T00:35:25;9.68;;;4.80;;
53545;SDS011;39432;51.902;10.844;2023-03-01T00:37:59;8.52;;;4.25;;
53545;SDS011;39432;51.902;10.844;2023-03-01T00:40:31;9.32;;;4.70;;
53545;SDS011;39432;51.902;10.844;2023-03-01T00:43:03;8.90;;;4.38;;
53545;SDS011;39432;51.902;10.844;2023-03-01T00:45:33;6.95;;;4.47;;
53545;SDS011;39432;51.902;10.844;2023-03-01T00:48:03;7.40;;;4.43;;
53545;SDS011;39432;51.902;10.844;2023-03-01T00:50:33;9.13;;;4.60;;
53545;SDS011;39432;51.902;10.844;2023-03-01T00:53:05;7.85;;;4.03;;
53545;SDS011;39432;51.902;10.844;2023-03-01T00:55:35;10.20;;;4.55;;
53545;SDS011;39432;51.902;10.844;2023-03-01T00:58:05;7.63;;;3.80;;
53545;SDS011;39432;51.902;10.844;2023-03-01T01:00:35;8.13;;;4.05;;
53545;SDS011;39432;51.902;10.844;2023-03-01T01:03:04;6.03;;;3.65;;
53545;SDS011;39432;51.902;10.844;2023-03-01T01:05:34;6.30;;;3.58;;
53545;SDS011;39432;51.902;10.844;2023-03-01T01:08:06;8.32;;;4.07;;
53545;SDS011;39432;51.902;10.844;2023-03-01T01:10:36;8.48;;;4.03;;
53545;SDS011;39432;51.902;10.844;2023-03-01T01:13:06;7.90;;;4.07;;
53545;SDS011;39432;51.902;10.844;2023-03-01T01:15:35;8.73;;;4.28;;
53545;SDS011;39432;51.902;10.844;2023-03-01T01:18:05;9.98;;;4.35;;
53545;SDS011;39432;51.902;10.844;2023-03-01T01:20:35;7.88;;;3.95;;
53545;SDS011;39432;51.902;10.844;2023-03-01T01:23:08;7.75;;;3.92;;
53545;SDS011;39432;51.902;10.844;2023-03-01T01:25:37;6.45;;;4.03;;
53545;SDS011;39432;51.902;10.844;2023-03-01T01:28:07;6.78;;;4.00;;
53545;SDS011;39432;51.902;10.844;2023-03-01T01:30:37;7.47;;;4.20;;
53545;SDS011;39432;51.902;10.844;2023-03-01T01:33:06;8.93;;;4.10;;
53545;SDS011;39432;51.902;10.844;2023-03-01T01:35:36;7.53;;;3.95;;
53545;SDS011;39432;51.902;10.844;2023-03-01T01:38:08;7.85;;;3.75;;
53545;SDS011;39432;51.902;10.844;2023-03-01T01:40:42;11.60;;;4.25;;
53545;SDS011;39432;51.902;10.844;2023-03-01T01:43:15;7.03;;;3.70;;
53545;SDS011;39432;51.902;10.844;2023-03-01T01:45:48;6.72;;;3.30;;
53545;SDS011;39432;51.902;10.844;2023-03-01T01:48:20;7.18;;;3.83;;
53545;SDS011;39432;51.902;10.844;2023-03-01T01:50:54;7.63;;;3.67;;
53545;SDS011;39432;51.902;10.844;2023-03-01T01:53:30;8.20;;;3.53;;
53545;SDS011;39432;51.902;10.844;2023-03-01T01:56:00;6.57;;;3.50;;
53545;SDS011;39432;51.902;10.844;2023-03-01T01:58:31;7.30;;;3.75;;
53545;SDS011;39432;51.902;10.844;2023-03-01T02:01:01;8.38;;;3.88;;
53545;SDS011;39432;51.902;10.844;2023-03-01T02:03:32;6.90;;;3.60;;
53545;SDS011;39432;51.902;10.844;2023-03-01T02:06:12;7.47;;;3.55;;
53545;SDS011;39432;51.902;10.844;2023-03-01T02:08:49;6.13;;;3.40;;
53545;SDS011;39432;51.902;10.844;2023-03-01T02:14:48;6.25;;;3.40;;
53545;SDS011;39432;51.902;10.844;2023-03-01T02:17:17;8.50;;;3.65;;
53545;SDS011;39432;51.902;10.844;2023-03-01T02:19:52;7.65;;;3.63;;
53545;SDS011;39432;51.902;10.844;2023-03-01T02:22:29;6.55;;;3.97;;
53545;SDS011;39432;51.902;10.844;2023-03-01T02:25:06;7.07;;;3.70;;
53545;SDS011;39432;51.902;10.844;2023-03-01T02:27:49;7.85;;;3.60;;
53545;SDS011;39432;51.902;10.844;2023-03-01T02:30:29;7.15;;;4.00;;
53545;SDS011;39432;51.902;10.844;2023-03-01T02:33:00;8.20;;;4.40;;
53545;SDS011;39432;51.902;10.844;2023-03-01T02:35:30;7.68;;;3.92;;
53545;SDS011;39432;51.902;10.844;2023-03-01T02:38:03;7.30;;;3.83;;
53545;SDS011;39432;51.902;10.844;2023-03-01T02:40:36;9.02;;;4.03;;
53545;SDS011;39432;51.902;10.844;2023-03-01T02:43:07;8.45;;;4.20;;
53545;SDS011;39432;51.902;10.844;2023-03-01T02:45:47;11.75;;;6.32;;
53545;SDS011;39432;51.902;10.844;2023-03-01T02:48:18;13.65;;;5.70;;
53545;SDS011;39432;51.902;10.844;2023-03-01T02:50:54;10.85;;;5.85;;
53545;SDS011;39432;51.902;10.844;2023-03-01T02:53:35;7.32;;;4.30;;
53545;SDS011;39432;51.902;10.844;2023-03-01T02:56:11;9.93;;;4.38;;
53545;SDS011;39432;51.902;10.844;2023-03-01T02:58:42;10.65;;;5.53;;
53545;SDS011;39432;51.902;10.844;2023-03-01T03:01:21;11.98;;;5.22;;
53545;SDS011;39432;51.902;10.844;2023-03-01T03:04:04;16.48;;;6.95;;
53545;SDS011;39432;51.902;10.844;2023-03-01T03:06:34;9.45;;;5.25;;
53545;SDS011;39432;51.902;10.844;2023-03-01T03:09:04;10.60;;;5.55;;
53545;SDS011;39432;51.902;10.844;2023-03-01T03:11:34;8.55;;;4.53;;
53545;SDS011;39432;51.902;10.844;2023-03-01T03:14:05;12.48;;;5.13;;
53545;SDS011;39432;51.902;10.844;2023-03-01T03:16:44;12.25;;;4.57;;
53545;SDS011;39432;51.902;10.844;2023-03-01T03:19:15;11.05;;;4.95;;
53545;SDS011;39432;51.902;10.844;2023-03-01T03:21:46;14.60;;;4.75;;
53545;SDS011;39432;51.902;10.844;2023-03-01T03:24:16;12.32;;;4.80;;
53545;SDS011;39432;51.902;10.844;2023-03-01T03:26:47;9.25;;;4.20;;
53545;SDS011;39432;51.902;10.844;2023-03-01T03:29:17;9.90;;;4.13;;
53545;SDS011;39432;51.902;10.844;2023-03-01T03:31:49;11.13;;;4.22;;
53545;SDS011;39432;51.902;10.844;2023-03-01T03:34:19;10.05;;;4.47;;
53545;SDS011;39432;51.902;10.844;2023-03-01T03:36:51;7.97;;;4.20;;
53545;SDS011;39432;51.902;10.844;2023-03-01T03:39:23;9.55;;;5.10;;
53545;SDS011;39432;51.902;10.844;2023-03-01T03:41:53;9.63;;;4.07;;
53545;SDS011;39432;51.902;10.844;2023-03-01T03:44:23;10.07;;;4.68;;
53545;SDS011;39432;51.902;10.844;2023-03-01T03:46:55;9.40;;;4.30;;
53545;SDS011;39432;51.902;10.844;2023-03-01T03:49:25;8.98;;;4.43;;
53545;SDS011;39432;51.902;10.844;2023-03-01T03:51:54;12.85;;;4.85;;
53545;SDS011;39432;51.902;10.844;2023-03-01T03:54:24;8.25;;;4.20;;
53545;SDS011;39432;51.902;10.844;2023-03-01T03:56:53;12.32;;;5.43;;
53545;SDS011;39432;51.902;10.844;2023-03-01T03:59:23;11.32;;;5.78;;
53545;SDS011;39432;51.902;10.844;2023-03-01T04:01:55;9.20;;;4.60;;
53545;SDS011;39432;51.902;10.844;2023-03-01T04:04:25;9.32;;;4.32;;
53545;SDS011;39432;51.902;10.844;2023-03-01T04:06:54;7.80;;;4.22;;
53545;SDS011;39432;51.902;10.844;2023-03-01T04:09:24;8.88;;;4.00;;
53545;SDS011;39432;51.902;10.844;2023-03-01T04:11:53;9.57;;;4.47;;
53545;SDS011;39432;51.902;10.844;2023-03-01T04:14:23;8.68;;;4.90;;
53545;SDS011;39432;51.902;10.844;2023-03-01T04:16:55;6.15;;;3.45;;
53545;SDS011;39432;51.902;10.844;2023-03-01T04:19:25;7.18;;;3.75;;
53545;SDS011;39432;51.902;10.844;2023-03-01T04:21:55;9.25;;;4.10;;
53545;SDS011;39432;51.902;10.844;2023-03-01T04:24:24;7.60;;;3.60;;
53545;SDS011;39432;51.902;10.844;2023-03-01T04:26:54;7.00;;;4.30;;
53545;SDS011;39432;51.902;10.844;2023-03-01T04:29:23;8.43;;;4.05;;
53545;SDS011;39432;51.902;10.844;2023-03-01T04:31:56;10.10;;;4.00;;
53545;SDS011;39432;51.902;10.844;2023-03-01T04:34:26;9.15;;;3.80;;
53545;SDS011;39432;51.902;10.844;2023-03-01T04:36:55;7.35;;;4.03;;
53545;SDS011;39432;51.902;10.844;2023-03-01T04:39:25;8.20;;;3.83;;
53545;SDS011;39432;51.902;10.844;2023-03-01T04:41:55;7.85;;;4.03;;
53545;SDS011;39432;51.902;10.844;2023-03-01T04:44:24;8.30;;;4.28;;
53545;SDS011;39432;51.902;10.844;2023-03-01T04:46:57;9.40;;;4.20;;
53545;SDS011;39432;51.902;10.844;2023-03-01T04:49:26;13.98;;;6.13;;
53545;SDS011;39432;51.902;10.844;2023-03-01T04:51:56;11.23;;;4.95;;
53545;SDS011;39432;51.902;10.844;2023-03-01T04:54:28;12.05;;;5.85;;
53545;SDS011;39432;51.902;10.844;2023-03-01T04:56:58;10.95;;;4.70;;
53545;SDS011;39432;51.902;10.844;2023-03-01T04:59:28;9.05;;;4.70;;
53545;SDS011;39432;51.902;10.844;2023-03-01T05:02:00;10.73;;;5.38;;
53545;SDS011;39432;51.902;10.844;2023-03-01T05:04:30;9.02;;;4.82;;
53545;SDS011;39432;51.902;10.844;2023-03-01T05:07:00;9.55;;;4.90;;
53545;SDS011;39432;51.902;10.844;2023-03-01T05:09:29;11.82;;;4.53;;
53545;SDS011;39432;51.902;10.844;2023-03-01T05:11:59;10.77;;;4.78;;
53545;SDS011;39432;51.902;10.844;2023-03-01T05:14:29;7.70;;;4.22;;
53545;SDS011;39432;51.902;10.844;2023-03-01T05:17:01;11.05;;;4.85;;
53545;SDS011;39432;51.902;10.844;2023-03-01T05:19:31;8.20;;;4.07;;
53545;SDS011;39432;51.902;10.844;2023-03-01T05:22:01;11.13;;;4.15;;
53545;SDS011;39432;51.902;10.844;2023-03-01T05:24:31;10.57;;;4.53;;
53545;SDS011;39432;51.902;10.844;2023-03-01T05:27:03;8.15;;;4.25;;
53545;SDS011;39432;51.902;10.844;2023-03-01T05:29:32;11.23;;;4.28;;
53545;SDS011;39432;51.902;10.844;2023-03-01T05:32:05;8.30;;;4.20;;
53545;SDS011;39432;51.902;10.844;2023-03-01T05:34:35;10.48;;;4.72;;
53545;SDS011;39432;51.902;10.844;2023-03-01T05:37:05;12.93;;;5.30;;
53545;SDS011;39432;51.902;10.844;2023-03-01T05:39:35;8.77;;;4.30;;
53545;SDS011;39432;51.902;10.844;2023-03-01T05:42:05;10.15;;;4.50;;
53545;SDS011;39432;51.902;10.844;2023-03-01T05:44:35;8.60;;;4.45;;
53545;SDS011;39432;51.902;10.844;2023-03-01T05:47:07;12.63;;;5.10;;
53545;SDS011;39432;51.902;10.844;2023-03-01T05:49:36;10.00;;;5.30;;
53545;SDS011;39432;51.902;10.844;2023-03-01T05:52:06;12.82;;;5.40;;
53545;SDS011;39432;51.902;10.844;2023-03-01T05:54:37;11.82;;;5.70;;
53545;SDS011;39432;51.902;10.844;2023-03-01T05:57:07;9.77;;;5.10;;
53545;SDS011;39432;51.902;10.844;2023-03-01T05:59:36;16.20;;;5.60;;
53545;SDS011;39432;51.902;10.844;2023-03-01T06:02:09;11.85;;;5.32;;
53545;SDS011;39432;51.902;10.844;2023-03-01T06:04:38;11.63;;;5.60;;
53545;SDS011;39432;51.902;10.844;2023-03-01T06:07:08;12.40;;;5.45;;
53545;SDS011;39432;51.902;10.844;2023-03-01T06:09:38;11.38;;;5.53;;
53545;SDS011;39432;51.902;10.844;2023-03-01T06:12:07;10.75;;;5.20;;
53545;SDS011;39432;51.902;10.844;2023-03-01T06:14:39;10.95;;;5.35;;
53545;SDS011;39432;51.902;10.844;2023-03-01T06:17:11;12.23;;;5.15;;
53545;SDS011;39432;51.902;10.844;2023-03-01T06:19:41;11.82;;;5.47;;
53545;SDS011;39432;51.902;10.844;2023-03-01T06:22:10;15.82;;;5.25;;
53545;SDS011;39432;51.902;10.844;2023-03-01T06:24:40;12.93;;;5.25;;
53545;SDS011;39432;51.902;10.844;2023-03-01T06:27:09;14.05;;;5.10;;
53545;SDS011;39432;51.902;10.844;2023-03-01T06:29:39;13.88;;;4.93;;
53545;SDS011;39432;51.902;10.844;2023-03-01T06:32:11;11.00;;;4.65;;
53545;SDS011;39432;51.902;10.844;2023-03-01T06:34:41;9.15;;;4.25;;
53545;SDS011;39432;51.902;10.844;2023-03-01T06:37:10;10.35;;;4.78;;
53545;SDS011;39432;51.902;10.844;2023-03-01T06:39:40;9.48;;;4.43;;
53545;SDS011;39432;51.902;10.844;2023-03-01T06:42:10;11.85;;;5.15;;
53545;SDS011;39432;51.902;10.844;2023-03-01T06:44:40;10.40;;;5.55;;
53545;SDS011;39432;51.902;10.844;2023-03-01T06:47:12;13.50;;;6.22;;
53545;SDS011;39432;51.902;10.844;2023-03-01T06:49:42;12.57;;;6.82;;
53545;SDS011;39432;51.902;10.844;2023-03-01T06:52:12;27.67;;;11.25;;
53545;SDS011;39432;51.902;10.844;2023-03-01T06:54:42;38.22;;;16.60;;
53545;SDS011;39432;51.902;10.844;2023-03-01T06:57:11;38.50;;;18.40;;
53545;SDS011;39432;51.902;10.844;2023-03-01T06:59:41;38.40;;;20.40;;
53545;SDS011;39432;51.902;10.844;2023-03-01T07:02:13;34.15;;;20.85;;
53545;SDS011;39432;51.902;10.844;2023-03-01T07:04:44;32.28;;;16.45;;
53545;SDS011;39432;51.902;10.844;2023-03-01T07:07:13;29.52;;;17.60;;
53545;SDS011;39432;51.902;10.844;2023-03-01T07:09:44;17.13;;;9.00;;
53545;SDS011;39432;51.902;10.844;2023-03-01T07:12:14;17.70;;;9.98;;
53545;SDS011;39432;51.902;10.844;2023-03-01T07:14:44;23.33;;;11.05;;
53545;SDS011;39432;51.902;10.844;2023-03-01T07:17:16;18.52;;;10.88;;
53545;SDS011;39432;51.902;10.844;2023-03-01T07:19:46;21.80;;;12.32;;
53545;SDS011;39432;51.902;10.844;2023-03-01T07:22:16;22.58;;;12.80;;
53545;SDS011;39432;51.902;10.844;2023-03-01T07:24:46;21.27;;;12.30;;
53545;SDS011;39432;51.902;10.844;2023-03-01T07:27:16;20.80;;;12.27;;
53545;SDS011;39432;51.902;10.844;2023-03-01T07:29:45;17.23;;;9.40;;
53545;SDS011;39432;51.902;10.844;2023-03-01T07:32:17;15.57;;;8.18;;
53545;SDS011;39432;51.902;10.844;2023-03-01T07:34:47;12.35;;;6.05;;
53545;SDS011;39432;51.902;10.844;2023-03-01T07:37:17;10.15;;;5.88;;
53545;SDS011;39432;51.902;10.844;2023-03-01T07:39:47;8.98;;;5.57;;
53545;SDS011;39432;51.902;10.844;2023-03-01T07:42:16;11.88;;;7.28;;
53545;SDS011;39432;51.902;10.844;2023-03-01T07:44:46;10.13;;;6.00;;
53545;SDS011;39432;51.902;10.844;2023-03-01T07:47:18;7.57;;;4.75;;
53545;SDS011;39432;51.902;10.844;2023-03-01T07:49:48;10.18;;;5.43;;
53545;SDS011;39432;51.902;10.844;2023-03-01T07:52:18;6.35;;;4.50;;
53545;SDS011;39432;51.902;10.844;2023-03-01T07:54:47;10.77;;;4.43;;
53545;SDS011;39432;51.902;10.844;2023-03-01T07:57:17;8.45;;;4.25;;
53545;SDS011;39432;51.902;10.844;2023-03-01T07:59:46;7.88;;;4.50;;
53545;SDS011;39432;51.902;10.844;2023-03-01T08:02:18;11.07;;;5.30;;
53545;SDS011;39432;51.902;10.844;2023-03-01T08:04:48;11.13;;;5.53;;
53545;SDS011;39432;51.902;10.844;2023-03-01T08:07:18;10.40;;;5.60;;
53545;SDS011;39432;51.902;10.844;2023-03-01T08:09:47;10.23;;;4.30;;
53545;SDS011;39432;51.902;10.844;2023-03-01T08:12:17;9.68;;;5.32;;
53545;SDS011;39432;51.902;10.844;2023-03-01T08:14:47;12.93;;;6.18;;
53545;SDS011;39432;51.902;10.844;2023-03-01T08:17:19;10.70;;;5.45;;
53545;SDS011;39432;51.902;10.844;2023-03-01T08:19:49;8.30;;;4.72;;
53545;SDS011;39432;51.902;10.844;2023-03-01T08:22:21;11.95;;;6.80;;
53545;SDS011;39432;51.902;10.844;2023-03-01T08:24:51;9.15;;;5.28;;
53545;SDS011;39432;51.902;10.844;2023-03-01T08:27:22;10.50;;;4.97;;
53545;SDS011;39432;51.902;10.844;2023-03-01T08:29:51;9.25;;;5.07;;
53545;SDS011;39432;51.902;10.844;2023-03-01T08:32:23;7.82;;;4.63;;
53545;SDS011;39432;51.902;10.844;2023-03-01T08:34:53;9.23;;;4.57;;
53545;SDS011;39432;51.902;10.844;2023-03-01T08:37:23;7.25;;;4.25;;
53545;SDS011;39432;51.902;10.844;2023-03-01T08:39:53;6.53;;;4.20;;
53545;SDS011;39432;51.902;10.844;2023-03-01T08:42:23;8.68;;;4.80;;
53545;SDS011;39432;51.902;10.844;2023-03-01T08:44:53;7.93;;;4.93;;
53545;SDS011;39432;51.902;10.844;2023-03-01T08:47:25;12.95;;;5.70;;
53545;SDS011;39432;51.902;10.844;2023-03-01T08:49:55;9.00;;;4.88;;
53545;SDS011;39432;51.902;10.844;2023-03-01T08:52:25;10.00;;;4.60;;
53545;SDS011;39432;51.902;10.844;2023-03-01T08:54:56;9.02;;;5.03;;
53545;SDS011;39432;51.902;10.844;2023-03-01T08:57:28;9.80;;;3.97;;
53545;SDS011;39432;51.902;10.844;2023-03-01T08:59:58;8.77;;;4.50;;
53545;SDS011;39432;51.902;10.844;2023-03-01T09:02:32;8.90;;;4.97;;
53545;SDS011;39432;51.902;10.844;2023-03-01T09:05:02;8.85;;;4.70;;
53545;SDS011;39432;51.902;10.844;2023-03-01T09:07:32;8.50;;;4.43;;
53545;SDS011;39432;51.902;10.844;2023-03-01T09:10:02;11.27;;;5.70;;
53545;SDS011;39432;51.902;10.844;2023-03-01T09:12:32;8.93;;;4.70;;
53545;SDS011;39432;51.902;10.844;2023-03-01T09:15:02;7.03;;;4.35;;
53545;SDS011;39432;51.902;10.844;2023-03-01T09:17:34;6.63;;;4.18;;
53545;SDS011;39432;51.902;10.844;2023-03-01T09:20:04;10.50;;;4.57;;
53545;SDS011;39432;51.902;10.844;2023-03-01T09:22:35;8.10;;;4.13;;
53545;SDS011;39432;51.902;10.844;2023-03-01T09:25:05;12.50;;;4.60;;
53545;SDS011;39432;51.902;10.844;2023-03-01T09:27:36;8.45;;;4.68;;
53545;SDS011;39432;51.902;10.844;2023-03-01T09:30:06;9.23;;;4.60;;
53545;SDS011;39432;51.902;10.844;2023-03-01T09:32:39;8.40;;;4.60;;
53545;SDS011;39432;51.902;10.844;2023-03-01T09:35:11;7.70;;;4.07;;
53545;SDS011;39432;51.902;10.844;2023-03-01T09:37:41;8.35;;;4.00;;
53545;SDS011;39432;51.902;10.844;2023-03-01T09:40:12;16.13;;;4.35;;
53545;SDS011;39432;51.902;10.844;2023-03-01T09:42:46;7.90;;;4.18;;
53545;SDS011;39432;51.902;10.844;2023-03-01T09:45:25;6.80;;;3.83;;
53545;SDS011;39432;51.902;10.844;2023-03-01T09:48:02;11.38;;;4.82;;
53545;SDS011;39432;51.902;10.844;2023-03-01T09:50:33;9.52;;;4.00;;
53545;SDS011;39432;51.902;10.844;2023-03-01T09:53:05;5.88;;;3.60;;
53545;SDS011;39432;51.902;10.844;2023-03-01T09:55:41;9.75;;;4.70;;
53545;SDS011;39432;51.902;10.844;2023-03-01T09:58:22;15.20;;;5.82;;
53545;SDS011;39432;51.902;10.844;2023-03-01T10:01:10;12.43;;;5.80;;
53545;SDS011;39432;51.902;10.844;2023-03-01T10:04:00;6.25;;;3.63;;
53545;SDS011;39432;51.902;10.844;2023-03-01T10:06:39;8.10;;;4.03;;
53545;SDS011;39432;51.902;10.844;2023-03-01T10:09:15;8.05;;;3.22;;
53545;SDS011;39432;51.902;10.844;2023-03-01T10:11:47;8.40;;;4.03;;
53545;SDS011;39432;51.902;10.844;2023-03-01T10:14:23;10.23;;;4.95;;
53545;SDS011;39432;51.902;10.844;2023-03-01T10:17:00;10.15;;;4.05;;
53545;SDS011;39432;51.902;10.844;2023-03-01T10:19:38;10.75;;;5.63;;
53545;SDS011;39432;51.902;10.844;2023-03-01T10:22:11;10.23;;;4.68;;
53545;SDS011;39432;51.902;10.844;2023-03-01T10:24:44;10.55;;;4.68;;
53545;SDS011;39432;51.902;10.844;2023-03-01T10:27:14;16.80;;;5.70;;
53545;SDS011;39432;51.902;10.844;2023-03-01T10:29:51;8.77;;;4.68;;
53545;SDS011;39432;51.902;10.844;2023-03-01T10:32:28;9.30;;;4.60;;
53545;SDS011;39432;51.902;10.844;2023-03-01T10:35:01;8.45;;;4.18;;
53545;SDS011;39432;51.902;10.844;2023-03-01T10:37:31;12.18;;;4.57;;
53545;SDS011;39432;51.902;10.844;2023-03-01T10:40:01;11.55;;;4.47;;
53545;SDS011;39432;51.902;10.844;2023-03-01T10:42:36;10.93;;;6.07;;
53545;SDS011;39432;51.902;10.844;2023-03-01T10:45:15;8.82;;;4.32;;
53545;SDS011;39432;51.902;10.844;2023-03-01T10:48:01;9.70;;;4.60;;
53545;SDS011;39432;51.902;10.844;2023-03-01T10:50:36;10.38;;;5.28;;
53545;SDS011;39432;51.902;10.844;2023-03-01T10:53:16;11.27;;;4.63;;
53545;SDS011;39432;51.902;10.844;2023-03-01T10:55:59;10.77;;;4.60;;
53545;SDS011;39432;51.902;10.844;2023-03-01T10:58:31;11.18;;;4.85;;
53545;SDS011;39432;51.902;10.844;2023-03-01T11:01:02;12.15;;;5.38;;
53545;SDS011;39432;51.902;10.844;2023-03-01T11:03:34;16.50;;;5.53;;
53545;SDS011;39432;51.902;10.844;2023-03-01T11:06:19;9.35;;;4.15;;
53545;SDS011;39432;51.902;10.844;2023-03-01T11:11:29;12.15;;;5.05;;
53545;SDS011;39432;51.902;10.844;2023-03-01T11:14:02;14.40;;;6.05;;
53545;SDS011;39432;51.902;10.844;2023-03-01T11:16:57;16.73;;;5.50;;
53545;SDS011;39432;51.902;10.844;2023-03-01T11:19:28;18.20;;;6.13;;
53545;SDS011;39432;51.902;10.844;2023-03-01T11:22:02;8.32;;;4.78;;
53545;SDS011;39432;51.902;10.844;2023-03-01T11:24:37;15.13;;;6.05;;
53545;SDS011;39432;51.902;10.844;2023-03-01T11:27:15;9.18;;;4.95;;
53545;SDS011;39432;51.902;10.844;2023-03-01T11:29:48;10.05;;;4.43;;
53545;SDS011;39432;51.902;10.844;2023-03-01T11:32:23;9.20;;;4.55;;
53545;SDS011;39432;51.902;10.844;2023-03-01T11:34:57;11.40;;;4.55;;
53545;SDS011;39432;51.902;10.844;2023-03-01T11:37:36;8.30;;;4.18;;
53545;SDS011;39432;51.902;10.844;2023-03-01T11:40:22;9.63;;;4.82;;
53545;SDS011;39432;51.902;10.844;2023-03-01T11:42:57;7.82;;;4.10;;
53545;SDS011;39432;51.902;10.844;2023-03-01T11:45:36;9.00;;;4.80;;
53545;SDS011;39432;51.902;10.844;2023-03-01T11:48:25;8.50;;;4.00;;
53545;SDS011;39432;51.902;10.844;2023-03-01T11:51:17;9.00;;;4.07;;
53545;SDS011;39432;51.902;10.844;2023-03-01T11:53:59;8.57;;;4.50;;
53545;SDS011;39432;51.902;10.844;2023-03-01T11:56:35;10.00;;;4.72;;
53545;SDS011;39432;51.902;10.844;2023-03-01T11:59:26;9.35;;;4.68;;
53545;SDS011;39432;51.902;10.844;2023-03-01T12:02:24;9.05;;;4.63;;
53545;SDS011;39432;51.902;10.844;2023-03-01T12:05:19;10.00;;;5.20;;
53545;SDS011;39432;51.902;10.844;2023-03-01T12:08:08;6.53;;;4.00;;
53545;SDS011;39432;51.902;10.844;2023-03-01T12:10:48;7.80;;;4.40;;
53545;SDS011;39432;51.902;10.844;2023-03-01T12:13:30;8.50;;;4.07;;
53545;SDS011;39432;51.902;10.844;2023-03-01T12:16:20;8.45;;;4.47;;
53545;SDS011;39432;51.902;10.844;2023-03-01T12:19:08;9.40;;;3.80;;
53545;SDS011;39432;51.902;10.844;2023-03-01T12:21:53;8.70;;;3.72;;
53545;SDS011;39432;51.902;10.844;2023-03-01T12:27:54;9.98;;;3.97;;
53545;SDS011;39432;51.902;10.844;2023-03-01T12:33:58;7.88;;;4.10;;
53545;SDS011;39432;51.902;10.844;2023-03-01T12:36:42;6.75;;;4.30;;
53545;SDS011;39432;51.902;10.844;2023-03-01T12:39:23;6.15;;;3.50;;
53545;SDS011;39432;51.902;10.844;2023-03-01T12:42:03;7.28;;;3.38;;
53545;SDS011;39432;51.902;10.844;2023-03-01T12:44:57;7.80;;;3.33;;
53545;SDS011;39432;51.902;10.844;2023-03-01T12:47:39;7.32;;;3.50;;
53545;SDS011;39432;51.902;10.844;2023-03-01T12:50:24;5.78;;;3.33;;
53545;SDS011;39432;51.902;10.844;2023-03-01T12:52:58;11.35;;;3.90;;
53545;SDS011;39432;51.902;10.844;2023-03-01T12:55:29;6.47;;;2.90;;
53545;SDS011;39432;51.902;10.844;2023-03-01T12:58:02;6.20;;;2.83;;
53545;SDS011;39432;51.902;10.844;2023-03-01T13:00:45;6.70;;;3.63;;
53545;SDS011;39432;51.902;10.844;2023-03-01T13:03:23;5.30;;;3.08;;
53545;SDS011;39432;51.902;10.844;2023-03-01T13:06:06;5.60;;;3.45;;
53545;SDS011;39432;51.902;10.844;2023-03-01T13:08:41;6.30;;;3.90;;
53545;SDS011;39432;51.902;10.844;2023-03-01T13:13:47;8.95;;;4.10;;
53545;SDS011;39432;51.902;10.844;2023-03-01T13:16:38;8.55;;;3.67;;
53545;SDS011;39432;51.902;10.844;2023-03-01T13:19:16;7.50;;;3.53;;
53545;SDS011;39432;51.902;10.844;2023-03-01T13:21:47;6.85;;;3.65;;
53545;SDS011;39432;51.902;10.844;2023-03-01T13:24:24;6.03;;;3.20;;
53545;SDS011;39432;51.902;10.844;2023-03-01T13:29:56;6.65;;;3.25;;
53545;SDS011;39432;51.902;10.844;2023-03-01T13:32:34;5.43;;;3.25;;
53545;SDS011;39432;51.902;10.844;2023-03-01T13:41:15;10.57;;;3.70;;
53545;SDS011;39432;51.902;10.844;2023-03-01T13:43:46;6.80;;;3.50;;
53545;SDS011;39432;51.902;10.844;2023-03-01T13:46:18;5.85;;;3.13;;
53545;SDS011;39432;51.902;10.844;2023-03-01T13:48:54;5.35;;;3.00;;
53545;SDS011;39432;51.902;10.844;2023-03-01T13:51:27;5.15;;;2.60;;
53545;SDS011;39432;51.902;10.844;2023-03-01T13:53:57;5.05;;;3.00;;
53545;SDS011;39432;51.902;10.844;2023-03-01T13:56:28;6.07;;;3.17;;
53545;SDS011;39432;51.902;10.844;2023-03-01T13:59:06;6.63;;;2.92;;
53545;SDS011;39432;51.902;10.844;2023-03-01T14:01:43;8.38;;;3.47;;
53545;SDS011;39432;51.902;10.844;2023-03-01T14:04:22;5.97;;;2.83;;
53545;SDS011;39432;51.902;10.844;2023-03-01T14:07:08;4.45;;;2.63;;
53545;SDS011;39432;51.902;10.844;2023-03-01T14:09:39;5.03;;;2.67;;
53545;SDS011;39432;51.902;10.844;2023-03-01T14:12:21;4.50;;;2.90;;
53545;SDS011;39432;51.902;10.844;2023-03-01T14:15:01;10.43;;;7.75;;
53545;SDS011;39432;51.902;10.844;2023-03-01T14:17:48;5.35;;;2.88;;
53545;SDS011;39432;51.902;10.844;2023-03-01T14:20:26;6.45;;;2.90;;
53545;SDS011;39432;51.902;10.844;2023-03-01T14:22:58;14.27;;;3.30;;
53545;SDS011;39432;51.902;10.844;2023-03-01T14:25:30;6.07;;;2.97;;
53545;SDS011;39432;51.902;10.844;2023-03-01T14:28:02;5.60;;;2.97;;
53545;SDS011;39432;51.902;10.844;2023-03-01T14:30:35;5.35;;;2.75;;
53545;SDS011;39432;51.902;10.844;2023-03-01T14:33:17;6.63;;;3.00;;
53545;SDS011;39432;51.902;10.844;2023-03-01T14:35:55;6.43;;;3.35;;
53545;SDS011;39432;51.902;10.844;2023-03-01T14:38:31;14.63;;;3.60;;
53545;SDS011;39432;51.902;10.844;2023-03-01T14:43:34;8.48;;;3.75;;
53545;SDS011;39432;51.902;10.844;2023-03-01T14:46:06;9.45;;;3.70;;
53545;SDS011;39432;51.902;10.844;2023-03-01T14:48:48;5.07;;;3.40;;
53545;SDS011;39432;51.902;10.844;2023-03-01T14:51:21;6.15;;;3.58;;
53545;SDS011;39432;51.902;10.844;2023-03-01T14:53:51;6.55;;;3.17;;
53545;SDS011;39432;51.902;10.844;2023-03-01T14:56:21;7.03;;;3.50;;
53545;SDS011;39432;51.902;10.844;2023-03-01T14:58:51;8.80;;;3.85;;
53545;SDS011;39432;51.902;10.844;2023-03-01T15:01:21;17.00;;;4.32;;
53545;SDS011;39432;51.902;10.844;2023-03-01T15:03:51;5.70;;;3.15;;
53545;SDS011;39432;51.902;10.844;2023-03-01T15:06:24;19.58;;;3.95;;
53545;SDS011;39432;51.902;10.844;2023-03-01T15:08:54;5.47;;;3.35;;
53545;SDS011;39432;51.902;10.844;2023-03-01T15:11:27;12.80;;;4.35;;
53545;SDS011;39432;51.902;10.844;2023-03-01T15:13:58;11.02;;;3.67;;
53545;SDS011;39432;51.902;10.844;2023-03-01T15:16:28;11.80;;;4.60;;
53545;SDS011;39432;51.902;10.844;2023-03-01T15:19:00;13.30;;;4.97;;
53545;SDS011;39432;51.902;10.844;2023-03-01T15:21:34;9.85;;;5.10;;
53545;SDS011;39432;51.902;10.844;2023-03-01T15:24:06;8.05;;;3.60;;
53545;SDS011;39432;51.902;10.844;2023-03-01T15:26:50;8.50;;;3.80;;
53545;SDS011;39432;51.902;10.844;2023-03-01T15:29:22;5.95;;;3.47;;